createdAt,value
2017-07-22T00:00:02.765Z,20.1
2017-07-22T00:00:07.114Z,20.1
2017-07-22T00:00:11.585Z,20.11
2017-07-22T00:00:16.042Z,20.11
2017-07-22T00:00:20.372Z,20.12
2017-07-22T00:00:24.712Z,20.12
2017-07-22T00:00:29.193Z,20.12
2017-07-22T00:00:33.642Z,20.12
2017-07-22T00:00:38.107Z,20.13
2017-07-22T00:00:42.559Z,20.13
2017-07-22T00:00:47.035Z,20.13
2017-07-22T00:00:51.518Z,20.13
2017-07-22T00:00:55.981Z,20.14
2017-07-22T00:01:00.446Z,20.14
2017-07-22T00:01:04.940Z,20.13
2017-07-22T00:01:09.397Z,20.14
2017-07-22T00:01:13.747Z,20.14
2017-07-22T00:01:18.203Z,20.15
2017-07-22T00:01:22.552Z,20.15
2017-07-22T00:01:26.896Z,20.14
2017-07-22T00:01:31.244Z,20.15
2017-07-22T00:01:35.586Z,20.15
2017-07-22T00:01:40.057Z,20.15
2017-07-22T00:01:44.518Z,20.16
2017-07-22T00:01:48.971Z,20.15
2017-07-22T00:01:53.429Z,20.16
2017-07-22T00:01:57.894Z,20.17
2017-07-22T00:02:02.542Z,20.16
2017-07-22T00:02:06.991Z,20.17
2017-07-22T00:02:11.454Z,20.16
2017-07-22T00:02:15.933Z,20.17
2017-07-22T00:02:20.393Z,20.17
2017-07-22T00:02:24.638Z,20.16
2017-07-22T00:02:29.117Z,20.17
2017-07-22T00:02:33.450Z,20.18
2017-07-22T00:02:37.912Z,20.17
2017-07-22T00:02:42.377Z,20.18
2017-07-22T00:02:46.830Z,20.17
2017-07-22T00:02:51.292Z,20.18
2017-07-22T00:02:55.749Z,20.18
2017-07-22T00:03:00.217Z,20.19
2017-07-22T00:03:04.922Z,20.2
2017-07-22T00:03:09.373Z,20.19
2017-07-22T00:03:13.814Z,20.18
2017-07-22T00:03:18.177Z,20.19
2017-07-22T00:03:22.531Z,20.19
2017-07-22T00:03:26.994Z,20.19
2017-07-22T00:03:31.344Z,20.19
2017-07-22T00:03:35.709Z,20.2
2017-07-22T00:03:39.937Z,20.2
2017-07-22T00:03:44.400Z,20.2
2017-07-22T00:03:48.857Z,20.2
2017-07-22T00:03:53.206Z,20.2
2017-07-22T00:03:57.671Z,20.2
2017-07-22T00:04:02.006Z,20.21
2017-07-22T00:04:06.237Z,20.2
2017-07-22T00:04:10.715Z,20.21
2017-07-22T00:04:14.918Z,20.21
2017-07-22T00:04:19.364Z,20.21
2017-07-22T00:04:23.598Z,20.21
2017-07-22T00:04:28.058Z,20.21
2017-07-22T00:04:32.517Z,20.21
2017-07-22T00:04:36.977Z,20.21
2017-07-22T00:04:41.322Z,20.22
2017-07-22T00:04:45.793Z,20.22
2017-07-22T00:04:50.124Z,20.22
2017-07-22T00:04:54.596Z,20.22
2017-07-22T00:04:58.952Z,20.22
2017-07-22T00:05:03.398Z,20.22
2017-07-22T00:05:07.738Z,20.23
2017-07-22T00:05:12.197Z,20.24
2017-07-22T00:05:16.434Z,20.23
2017-07-22T00:05:20.889Z,20.23
2017-07-22T00:05:25.352Z,20.23
2017-07-22T00:05:29.816Z,20.23
2017-07-22T00:05:34.267Z,20.23
2017-07-22T00:05:38.733Z,20.24
2017-07-22T00:05:43.188Z,20.23
2017-07-22T00:05:47.674Z,20.23
2017-07-22T00:05:52.147Z,20.24
2017-07-22T00:05:56.484Z,20.24
2017-07-22T00:06:00.949Z,20.25
2017-07-22T00:06:05.214Z,20.25
2017-07-22T00:06:09.682Z,20.24
2017-07-22T00:06:13.786Z,20.25
2017-07-22T00:06:18.138Z,20.25
2017-07-22T00:06:22.626Z,20.25
2017-07-22T00:06:27.089Z,20.25
2017-07-22T00:06:31.448Z,20.26
2017-07-22T00:06:35.788Z,20.25
2017-07-22T00:06:40.247Z,20.25
2017-07-22T00:06:44.704Z,20.26
2017-07-22T00:06:49.137Z,20.26
2017-07-22T00:06:53.603Z,20.26
2017-07-22T00:06:58.055Z,20.27
2017-07-22T00:07:02.823Z,20.26
2017-07-22T00:07:06.932Z,20.26
2017-07-22T00:07:11.402Z,20.27
2017-07-22T00:07:15.861Z,20.27
2017-07-22T00:07:20.201Z,20.27
2017-07-22T00:07:24.666Z,20.28
2017-07-22T00:07:29.124Z,20.27
2017-07-22T00:07:33.472Z,20.28
2017-07-22T00:07:37.810Z,20.28
2017-07-22T00:07:42.266Z,20.27
2017-07-22T00:07:46.718Z,20.28
2017-07-22T00:07:51.201Z,20.29
2017-07-22T00:07:55.540Z,20.31
2017-07-22T00:08:00.000Z,20.3
2017-07-22T00:08:04.678Z,20.3
2017-07-22T00:08:08.901Z,20.31
2017-07-22T00:08:13.230Z,20.3
2017-07-22T00:08:17.702Z,20.31
2017-07-22T00:08:22.165Z,20.31
2017-07-22T00:08:26.621Z,20.31
2017-07-22T00:08:31.100Z,20.31
2017-07-22T00:08:35.551Z,20.31
2017-07-22T00:08:39.905Z,20.32
2017-07-22T00:08:44.142Z,20.32
2017-07-22T00:08:48.589Z,20.32
2017-07-22T00:08:52.916Z,20.33
2017-07-22T00:08:57.251Z,20.32
2017-07-22T00:09:01.763Z,20.33
2017-07-22T00:09:06.097Z,20.33
2017-07-22T00:09:10.453Z,20.33
2017-07-22T00:09:14.795Z,20.33
2017-07-22T00:09:19.255Z,20.33
2017-07-22T00:09:23.702Z,20.33
2017-07-22T00:09:28.181Z,20.34
2017-07-22T00:09:32.562Z,20.34
2017-07-22T00:09:37.038Z,20.34
2017-07-22T00:09:41.478Z,20.35
2017-07-22T00:09:45.949Z,20.34
2017-07-22T00:09:50.402Z,20.33
2017-07-22T00:09:54.736Z,20.35
2017-07-22T00:09:59.186Z,20.35
2017-07-22T00:10:03.420Z,20.35
2017-07-22T00:10:07.640Z,20.35
2017-07-22T00:10:11.985Z,20.36
2017-07-22T00:10:16.465Z,20.36
2017-07-22T00:10:20.825Z,20.37
2017-07-22T00:10:25.161Z,20.37
2017-07-22T00:10:29.624Z,20.36
2017-07-22T00:10:34.090Z,20.37
2017-07-22T00:10:38.559Z,20.37
2017-07-22T00:10:42.912Z,20.38
2017-07-22T00:10:47.377Z,20.38
2017-07-22T00:10:51.836Z,20.38
2017-07-22T00:10:56.311Z,20.38
2017-07-22T00:11:00.775Z,20.38
2017-07-22T00:11:05.132Z,20.39
2017-07-22T00:11:09.352Z,20.39
2017-07-22T00:11:13.797Z,20.39
2017-07-22T00:11:18.139Z,20.4
2017-07-22T00:11:22.611Z,20.4
2017-07-22T00:11:27.085Z,20.39
2017-07-22T00:11:31.545Z,20.4
2017-07-22T00:11:35.876Z,20.4
2017-07-22T00:11:40.342Z,20.4
2017-07-22T00:11:44.795Z,20.41
2017-07-22T00:11:49.256Z,20.41
2017-07-22T00:11:53.705Z,20.4
2017-07-22T00:11:58.176Z,20.41
2017-07-22T00:12:02.876Z,20.41
2017-07-22T00:12:07.333Z,20.41
2017-07-22T00:12:11.453Z,20.41
2017-07-22T00:12:15.926Z,20.42
2017-07-22T00:12:20.379Z,20.42
2017-07-22T00:12:24.833Z,20.42
2017-07-22T00:12:29.286Z,20.42
2017-07-22T00:12:33.762Z,20.42
2017-07-22T00:12:38.218Z,20.43
2017-07-22T00:12:42.554Z,20.43
2017-07-22T00:12:47.029Z,20.42
2017-07-22T00:12:51.494Z,20.42
2017-07-22T00:12:55.956Z,20.43
2017-07-22T00:13:00.299Z,20.43
2017-07-22T00:13:04.637Z,20.42
2017-07-22T00:13:08.973Z,20.44
2017-07-22T00:13:13.435Z,20.44
2017-07-22T00:13:17.913Z,20.43
2017-07-22T00:13:22.212Z,20.44
2017-07-22T00:13:26.678Z,20.44
2017-07-22T00:13:31.011Z,20.44
2017-07-22T00:13:35.239Z,20.44
2017-07-22T00:13:39.696Z,20.44
2017-07-22T00:13:44.038Z,20.44
2017-07-22T00:13:48.499Z,20.44
2017-07-22T00:13:52.965Z,20.44
2017-07-22T00:13:57.317Z,20.45
2017-07-22T00:14:01.674Z,20.45
2017-07-22T00:14:06.141Z,20.45
2017-07-22T00:14:10.483Z,20.45
2017-07-22T00:14:14.609Z,20.45
2017-07-22T00:14:19.065Z,20.45
2017-07-22T00:14:23.400Z,20.46
2017-07-22T00:14:27.860Z,20.46
2017-07-22T00:14:32.319Z,20.45
2017-07-22T00:14:36.670Z,20.46
2017-07-22T00:14:41.130Z,20.46
2017-07-22T00:14:45.602Z,20.46
2017-07-22T00:14:50.053Z,20.46
2017-07-22T00:14:54.514Z,20.46
2017-07-22T00:14:58.980Z,20.46
2017-07-22T00:15:03.476Z,20.47
2017-07-22T00:15:07.925Z,20.47
2017-07-22T00:15:12.378Z,20.46
2017-07-22T00:15:16.725Z,20.47
2017-07-22T00:15:21.097Z,20.47
2017-07-22T00:15:25.444Z,20.46
2017-07-22T00:15:29.782Z,20.46
2017-07-22T00:15:34.131Z,20.47
2017-07-22T00:15:38.502Z,20.47
2017-07-22T00:15:42.847Z,20.47
2017-07-22T00:15:47.192Z,20.46
2017-07-22T00:15:51.672Z,20.47
2017-07-22T00:15:56.128Z,20.47
2017-07-22T00:16:00.587Z,20.47
2017-07-22T00:16:05.049Z,20.47
2017-07-22T00:16:09.560Z,20.47
2017-07-22T00:16:14.036Z,20.47
2017-07-22T00:16:18.491Z,20.47
2017-07-22T00:16:22.954Z,20.48
2017-07-22T00:16:27.297Z,20.49
2017-07-22T00:16:31.769Z,20.48
2017-07-22T00:16:36.248Z,20.48
2017-07-22T00:16:40.703Z,20.47
2017-07-22T00:16:45.066Z,20.47
2017-07-22T00:16:49.526Z,20.48
2017-07-22T00:16:53.852Z,20.48
2017-07-22T00:16:58.362Z,20.48
2017-07-22T00:17:02.756Z,20.48
2017-07-22T00:17:07.204Z,20.48
2017-07-22T00:17:11.427Z,20.48
2017-07-22T00:17:15.667Z,20.49
2017-07-22T00:17:20.021Z,20.48
2017-07-22T00:17:24.492Z,20.49
2017-07-22T00:17:28.952Z,20.48
2017-07-22T00:17:33.401Z,20.48
2017-07-22T00:17:37.750Z,20.49
2017-07-22T00:17:42.075Z,20.48
2017-07-22T00:17:46.537Z,20.49
2017-07-22T00:17:51.019Z,20.49
2017-07-22T00:17:55.467Z,20.48
2017-07-22T00:17:59.924Z,20.48
2017-07-22T00:18:04.708Z,20.48
2017-07-22T00:18:09.072Z,20.5
2017-07-22T00:18:13.532Z,20.48
2017-07-22T00:18:17.756Z,20.48
2017-07-22T00:18:22.088Z,20.48
2017-07-22T00:18:26.563Z,20.49
2017-07-22T00:18:31.035Z,20.49
2017-07-22T00:18:35.510Z,20.49
2017-07-22T00:18:39.744Z,20.49
2017-07-22T00:18:44.192Z,20.49
2017-07-22T00:18:48.637Z,20.49
2017-07-22T00:18:53.093Z,20.48
2017-07-22T00:18:57.549Z,20.48
2017-07-22T00:19:02.023Z,20.49
2017-07-22T00:19:06.481Z,20.49
2017-07-22T00:19:10.939Z,20.48
2017-07-22T00:19:15.403Z,20.48
2017-07-22T00:19:19.873Z,20.48
2017-07-22T00:19:24.230Z,20.48
2017-07-22T00:19:28.448Z,20.49
2017-07-22T00:19:32.782Z,20.49
2017-07-22T00:19:37.110Z,20.49
2017-07-22T00:19:41.438Z,20.49
2017-07-22T00:19:45.880Z,20.48
2017-07-22T00:19:50.336Z,20.48
2017-07-22T00:19:54.803Z,20.48
2017-07-22T00:19:59.260Z,20.48
2017-07-22T00:20:03.731Z,20.49
2017-07-22T00:20:08.190Z,20.48
2017-07-22T00:20:12.534Z,20.48
2017-07-22T00:20:16.878Z,20.48
2017-07-22T00:20:21.091Z,20.48
2017-07-22T00:20:25.369Z,20.48
2017-07-22T00:20:29.817Z,20.48
2017-07-22T00:20:34.281Z,20.48
2017-07-22T00:20:38.733Z,20.47
2017-07-22T00:20:43.232Z,20.48
2017-07-22T00:20:47.695Z,20.48
2017-07-22T00:20:52.173Z,20.47
2017-07-22T00:20:56.624Z,20.48
2017-07-22T00:21:01.085Z,20.47
2017-07-22T00:21:05.590Z,20.47
2017-07-22T00:21:09.936Z,20.47
2017-07-22T00:21:14.404Z,20.48
2017-07-22T00:21:18.759Z,20.48
2017-07-22T00:21:22.971Z,20.47
2017-07-22T00:21:27.311Z,20.47
2017-07-22T00:21:31.794Z,20.46
2017-07-22T00:21:36.263Z,20.47
2017-07-22T00:21:40.731Z,20.47
2017-07-22T00:21:45.198Z,20.46
2017-07-22T00:21:49.538Z,20.46
2017-07-22T00:21:53.993Z,20.46
2017-07-22T00:21:58.327Z,20.46
2017-07-22T00:22:02.776Z,20.47
2017-07-22T00:22:07.127Z,20.46
2017-07-22T00:22:11.343Z,20.46
2017-07-22T00:22:15.575Z,20.46
2017-07-22T00:22:19.922Z,20.46
2017-07-22T00:22:24.383Z,20.46
2017-07-22T00:22:28.841Z,20.46
2017-07-22T00:22:33.309Z,20.45
2017-07-22T00:22:37.774Z,20.46
2017-07-22T00:22:42.011Z,20.46
2017-07-22T00:22:46.482Z,20.45
2017-07-22T00:22:50.831Z,20.45
2017-07-22T00:22:55.283Z,20.45
2017-07-22T00:22:59.498Z,20.45
2017-07-22T00:23:04.009Z,20.45
2017-07-22T00:23:08.362Z,20.45
2017-07-22T00:23:12.718Z,20.44
2017-07-22T00:23:17.179Z,20.45
2017-07-22T00:23:21.518Z,20.44
2017-07-22T00:23:25.866Z,20.43
2017-07-22T00:23:30.334Z,20.43
2017-07-22T00:23:34.785Z,20.44
2017-07-22T00:23:39.237Z,20.43
2017-07-22T00:23:43.699Z,20.43
2017-07-22T00:23:47.939Z,20.43
2017-07-22T00:23:52.275Z,20.43
2017-07-22T00:23:56.628Z,20.43
2017-07-22T00:24:01.081Z,20.42
2017-07-22T00:24:05.635Z,20.43
2017-07-22T00:24:09.992Z,20.42
2017-07-22T00:24:14.210Z,20.42
2017-07-22T00:24:18.567Z,20.42
2017-07-22T00:24:22.816Z,20.42
2017-07-22T00:24:27.282Z,20.42
2017-07-22T00:24:31.634Z,20.42
2017-07-22T00:24:35.966Z,20.41
2017-07-22T00:24:40.307Z,20.42
2017-07-22T00:24:44.748Z,20.42
2017-07-22T00:24:49.207Z,20.41
2017-07-22T00:24:53.560Z,20.41
2017-07-22T00:24:57.891Z,20.41
2017-07-22T00:25:02.353Z,20.41
2017-07-22T00:25:06.586Z,20.41
2017-07-22T00:25:10.823Z,20.41
2017-07-22T00:25:15.265Z,20.4
2017-07-22T00:25:19.618Z,20.41
2017-07-22T00:25:24.073Z,20.4
2017-07-22T00:25:28.426Z,20.4
2017-07-22T00:25:32.653Z,20.4
2017-07-22T00:25:37.115Z,20.39
2017-07-22T00:25:41.589Z,20.39
2017-07-22T00:25:45.941Z,20.39
2017-07-22T00:25:50.393Z,20.39
2017-07-22T00:25:54.866Z,20.39
2017-07-22T00:25:59.332Z,20.38
2017-07-22T00:26:03.796Z,20.38
2017-07-22T00:26:08.020Z,20.38
2017-07-22T00:26:12.497Z,20.37
2017-07-22T00:26:16.969Z,20.37
2017-07-22T00:26:21.447Z,20.37
2017-07-22T00:26:25.699Z,20.37
2017-07-22T00:26:30.051Z,20.37
2017-07-22T00:26:34.518Z,20.37
2017-07-22T00:26:38.850Z,20.37
2017-07-22T00:26:43.084Z,20.36
2017-07-22T00:26:47.539Z,20.36
2017-07-22T00:26:52.011Z,20.37
2017-07-22T00:26:56.464Z,20.36
2017-07-22T00:27:00.812Z,20.36
2017-07-22T00:27:05.311Z,20.36
2017-07-22T00:27:09.778Z,20.36
2017-07-22T00:27:14.238Z,20.36
2017-07-22T00:27:18.693Z,20.36
2017-07-22T00:27:23.147Z,20.36
2017-07-22T00:27:27.500Z,20.35
2017-07-22T00:27:31.854Z,20.36
2017-07-22T00:27:36.198Z,20.36
2017-07-22T00:27:40.528Z,20.36
2017-07-22T00:27:44.994Z,20.35
2017-07-22T00:27:49.453Z,20.35
2017-07-22T00:27:53.949Z,20.35
2017-07-22T00:27:58.421Z,20.35
2017-07-22T00:28:02.866Z,20.35
2017-07-22T00:28:07.347Z,20.35
2017-07-22T00:28:11.819Z,20.34
2017-07-22T00:28:16.286Z,20.34
2017-07-22T00:28:20.753Z,20.34
2017-07-22T00:28:25.093Z,20.34
2017-07-22T00:28:29.541Z,20.34
2017-07-22T00:28:33.874Z,20.34
2017-07-22T00:28:38.337Z,20.33
2017-07-22T00:28:42.814Z,20.34
2017-07-22T00:28:47.251Z,20.34
2017-07-22T00:28:51.703Z,20.33
2017-07-22T00:28:56.158Z,20.34
2017-07-22T00:29:00.625Z,20.33
2017-07-22T00:29:05.177Z,20.33
2017-07-22T00:29:09.630Z,20.33
2017-07-22T00:29:13.982Z,20.33
2017-07-22T00:29:18.449Z,20.34
2017-07-22T00:29:22.805Z,20.33
2017-07-22T00:29:27.255Z,20.33
2017-07-22T00:29:31.605Z,20.33
2017-07-22T00:29:36.062Z,20.33
2017-07-22T00:29:40.525Z,20.32
2017-07-22T00:29:44.856Z,20.32
2017-07-22T00:29:49.314Z,20.32
2017-07-22T00:29:53.760Z,20.32
2017-07-22T00:29:57.959Z,20.33
2017-07-22T00:30:02.656Z,20.32
2017-07-22T00:30:06.771Z,20.32
2017-07-22T00:30:11.228Z,20.32
2017-07-22T00:30:15.688Z,20.32
2017-07-22T00:30:20.167Z,20.32
2017-07-22T00:30:24.617Z,20.31
2017-07-22T00:30:28.823Z,20.31
2017-07-22T00:30:33.288Z,20.3
2017-07-22T00:30:37.746Z,20.31
2017-07-22T00:30:42.200Z,20.31
2017-07-22T00:30:46.555Z,20.31
2017-07-22T00:30:51.017Z,20.31
2017-07-22T00:30:55.485Z,20.3
2017-07-22T00:30:59.936Z,20.3
2017-07-22T00:31:04.398Z,20.29
2017-07-22T00:31:08.866Z,20.31
2017-07-22T00:31:13.330Z,20.3
2017-07-22T00:31:17.786Z,20.3
2017-07-22T00:31:22.140Z,20.29
2017-07-22T00:31:26.584Z,20.29
2017-07-22T00:31:30.810Z,20.29
2017-07-22T00:31:35.280Z,20.29
2017-07-22T00:31:39.729Z,20.29
2017-07-22T00:31:44.196Z,20.29
2017-07-22T00:31:48.665Z,20.29
2017-07-22T00:31:53.141Z,20.28
2017-07-22T00:31:57.597Z,20.28
2017-07-22T00:32:02.060Z,20.28
2017-07-22T00:32:06.278Z,20.27
2017-07-22T00:32:10.737Z,20.28
2017-07-22T00:32:15.067Z,20.28
2017-07-22T00:32:19.552Z,20.28
2017-07-22T00:32:24.016Z,20.29
2017-07-22T00:32:28.231Z,20.27
2017-07-22T00:32:32.588Z,20.27
2017-07-22T00:32:37.078Z,20.28
2017-07-22T00:32:41.539Z,20.27
2017-07-22T00:32:45.988Z,20.27
2017-07-22T00:32:50.201Z,20.27
2017-07-22T00:32:54.660Z,20.27
2017-07-22T00:32:59.130Z,20.27
2017-07-22T00:33:03.687Z,20.27
2017-07-22T00:33:08.155Z,20.27
2017-07-22T00:33:12.495Z,20.27
2017-07-22T00:33:16.950Z,20.27
2017-07-22T00:33:21.408Z,20.26
2017-07-22T00:33:25.876Z,20.27
2017-07-22T00:33:30.334Z,20.27
2017-07-22T00:33:34.801Z,20.27
2017-07-22T00:33:39.027Z,20.27
2017-07-22T00:33:43.380Z,20.26
2017-07-22T00:33:47.850Z,20.26
2017-07-22T00:33:52.370Z,20.26
2017-07-22T00:33:56.812Z,20.26
2017-07-22T00:34:01.185Z,20.25
2017-07-22T00:34:05.628Z,20.26
2017-07-22T00:34:09.979Z,20.25
2017-07-22T00:34:14.329Z,20.25
2017-07-22T00:34:18.797Z,20.26
2017-07-22T00:34:23.243Z,20.25
2017-07-22T00:34:27.718Z,20.24
2017-07-22T00:34:32.073Z,20.24
2017-07-22T00:34:36.540Z,20.25
2017-07-22T00:34:40.880Z,20.24
2017-07-22T00:34:45.340Z,20.23
2017-07-22T00:34:49.790Z,20.25
2017-07-22T00:34:54.259Z,20.24
2017-07-22T00:34:58.723Z,20.24
2017-07-22T00:35:03.286Z,20.23
2017-07-22T00:35:07.752Z,20.24
2017-07-22T00:35:12.213Z,20.23
2017-07-22T00:35:16.674Z,20.24
2017-07-22T00:35:20.898Z,20.23
2017-07-22T00:35:25.355Z,20.23
2017-07-22T00:35:29.816Z,20.23
2017-07-22T00:35:34.159Z,20.23
2017-07-22T00:35:38.631Z,20.23
2017-07-22T00:35:43.077Z,20.22
2017-07-22T00:35:47.530Z,20.23
2017-07-22T00:35:51.995Z,20.22
2017-07-22T00:35:56.470Z,20.22
2017-07-22T00:36:00.947Z,20.22
2017-07-22T00:36:05.298Z,20.22
2017-07-22T00:36:09.527Z,20.21
2017-07-22T00:36:13.997Z,20.22
2017-07-22T00:36:18.460Z,20.22
2017-07-22T00:36:22.928Z,20.21
2017-07-22T00:36:27.394Z,20.21
2017-07-22T00:36:31.751Z,20.21
2017-07-22T00:36:35.973Z,20.21
2017-07-22T00:36:40.416Z,20.22
2017-07-22T00:36:44.878Z,20.21
2017-07-22T00:36:49.370Z,20.2
2017-07-22T00:36:53.836Z,20.2
2017-07-22T00:36:58.283Z,20.2
2017-07-22T00:37:02.898Z,20.21
2017-07-22T00:37:07.389Z,20.2
2017-07-22T00:37:11.734Z,20.2
2017-07-22T00:37:16.178Z,20.2
2017-07-22T00:37:20.507Z,20.2
2017-07-22T00:37:24.982Z,20.2
2017-07-22T00:37:29.445Z,20.19
2017-07-22T00:37:33.895Z,20.2
2017-07-22T00:37:38.358Z,20.19
2017-07-22T00:37:42.822Z,20.19
2017-07-22T00:37:47.290Z,20.19
2017-07-22T00:37:51.647Z,20.19
2017-07-22T00:37:56.107Z,20.18
2017-07-22T00:38:00.569Z,20.18
2017-07-22T00:38:04.950Z,20.18
2017-07-22T00:38:09.175Z,20.18
2017-07-22T00:38:13.533Z,20.17
2017-07-22T00:38:17.992Z,20.18
2017-07-22T00:38:22.452Z,20.17
2017-07-22T00:38:26.915Z,20.17
2017-07-22T00:38:31.149Z,20.16
2017-07-22T00:38:35.482Z,20.17
2017-07-22T00:38:39.823Z,20.16
2017-07-22T00:38:44.318Z,20.16
2017-07-22T00:38:48.790Z,20.17
2017-07-22T00:38:53.245Z,20.15
2017-07-22T00:38:57.478Z,20.15
2017-07-22T00:39:02.102Z,20.15
2017-07-22T00:39:06.457Z,20.15
2017-07-22T00:39:10.927Z,20.15
2017-07-22T00:39:15.268Z,20.15
2017-07-22T00:39:19.624Z,20.14
2017-07-22T00:39:24.067Z,20.14
2017-07-22T00:39:28.413Z,20.14
2017-07-22T00:39:32.862Z,20.13
2017-07-22T00:39:37.214Z,20.14
2017-07-22T00:39:41.670Z,20.12
2017-07-22T00:39:46.118Z,20.13
2017-07-22T00:39:50.354Z,20.12
2017-07-22T00:39:54.849Z,20.12
2017-07-22T00:39:59.331Z,20.13
2017-07-22T00:40:03.927Z,20.12
2017-07-22T00:40:08.286Z,20.11
2017-07-22T00:40:12.751Z,20.11
2017-07-22T00:40:17.217Z,20.1
2017-07-22T00:40:21.674Z,20.1
2017-07-22T00:40:26.138Z,20.09
2017-07-22T00:40:30.592Z,20.1
2017-07-22T00:40:35.049Z,20.09
2017-07-22T00:40:39.391Z,20.09
2017-07-22T00:40:43.847Z,20.09
2017-07-22T00:40:48.311Z,20.08
2017-07-22T00:40:52.747Z,20.08
2017-07-22T00:40:57.206Z,20.08
2017-07-22T00:41:02.006Z,20.07
2017-07-22T00:41:06.341Z,20.07
2017-07-22T00:41:10.803Z,20.07
2017-07-22T00:41:15.152Z,20.06
2017-07-22T00:41:19.489Z,20.06
2017-07-22T00:41:23.950Z,20.05
2017-07-22T00:41:28.187Z,20.05
2017-07-22T00:41:32.666Z,20.05
2017-07-22T00:41:37.131Z,20.05
2017-07-22T00:41:41.573Z,20.04
2017-07-22T00:41:46.033Z,20.04
2017-07-22T00:41:50.482Z,20.04
2017-07-22T00:41:54.951Z,20.03
2017-07-22T00:41:59.324Z,20.03
2017-07-22T00:42:04.152Z,20.03
2017-07-22T00:42:08.380Z,20.02
2017-07-22T00:42:12.724Z,20.02
2017-07-22T00:42:17.057Z,20.01
2017-07-22T00:42:21.403Z,20.01
2017-07-22T00:42:25.752Z,20.01
2017-07-22T00:42:30.208Z,20
2017-07-22T00:42:34.672Z,20
2017-07-22T00:42:39.019Z,20
2017-07-22T00:42:43.476Z,19.99
2017-07-22T00:42:47.939Z,19.99
2017-07-22T00:42:52.393Z,19.99
2017-07-22T00:42:56.846Z,19.99
2017-07-22T00:43:01.071Z,19.98
2017-07-22T00:43:05.729Z,19.97
2017-07-22T00:43:10.201Z,19.96
2017-07-22T00:43:14.414Z,19.97
2017-07-22T00:43:18.791Z,19.97
2017-07-22T00:43:23.250Z,19.96
2017-07-22T00:43:27.704Z,19.95
2017-07-22T00:43:32.172Z,19.95
2017-07-22T00:43:36.621Z,19.95
2017-07-22T00:43:40.978Z,19.95
2017-07-22T00:43:45.438Z,19.94
2017-07-22T00:43:49.898Z,19.93
2017-07-22T00:43:54.350Z,19.93
2017-07-22T00:43:58.690Z,19.93
2017-07-22T00:44:03.264Z,19.92
2017-07-22T00:44:07.728Z,19.92
2017-07-22T00:44:12.077Z,19.92
2017-07-22T00:44:16.526Z,19.92
2017-07-22T00:44:20.977Z,19.91
2017-07-22T00:44:25.308Z,19.91
2017-07-22T00:44:29.789Z,19.9
2017-07-22T00:44:34.149Z,19.9
2017-07-22T00:44:38.611Z,19.89
2017-07-22T00:44:42.946Z,19.89
2017-07-22T00:44:47.396Z,19.89
2017-07-22T00:44:51.868Z,19.89
2017-07-22T00:44:56.336Z,19.89
2017-07-22T00:45:00.811Z,19.89
2017-07-22T00:45:05.459Z,19.88
2017-07-22T00:45:09.934Z,19.87
2017-07-22T00:45:14.400Z,19.88
2017-07-22T00:45:18.851Z,19.87
2017-07-22T00:45:23.322Z,19.87
2017-07-22T00:45:27.668Z,19.87
2017-07-22T00:45:31.905Z,19.86
2017-07-22T00:45:36.369Z,19.85
2017-07-22T00:45:40.835Z,19.85
2017-07-22T00:45:45.307Z,19.85
2017-07-22T00:45:49.765Z,19.84
2017-07-22T00:45:54.230Z,19.84
2017-07-22T00:45:58.690Z,19.84
2017-07-22T00:46:03.038Z,19.83
2017-07-22T00:46:07.266Z,19.84
2017-07-22T00:46:11.624Z,19.83
2017-07-22T00:46:15.987Z,19.83
2017-07-22T00:46:20.437Z,19.82
2017-07-22T00:46:24.891Z,19.83
2017-07-22T00:46:29.367Z,19.83
2017-07-22T00:46:33.712Z,19.82
2017-07-22T00:46:38.051Z,19.81
2017-07-22T00:46:42.273Z,19.81
2017-07-22T00:46:46.750Z,19.81
2017-07-22T00:46:51.214Z,19.81
2017-07-22T00:46:55.675Z,19.81
2017-07-22T00:47:00.133Z,19.81
2017-07-22T00:47:04.633Z,19.79
2017-07-22T00:47:09.085Z,19.8
2017-07-22T00:47:13.554Z,19.8
2017-07-22T00:47:18.003Z,19.79
2017-07-22T00:47:22.473Z,19.78
2017-07-22T00:47:26.815Z,19.79
2017-07-22T00:47:31.156Z,19.79
2017-07-22T00:47:35.515Z,19.78
2017-07-22T00:47:39.864Z,19.79
2017-07-22T00:47:44.320Z,19.78
2017-07-22T00:47:48.657Z,19.78
2017-07-22T00:47:53.131Z,19.77
2017-07-22T00:47:57.594Z,19.77
2017-07-22T00:48:01.940Z,19.76
2017-07-22T00:48:06.278Z,19.76
2017-07-22T00:48:10.650Z,19.77
2017-07-22T00:48:15.109Z,19.76
2017-07-22T00:48:19.574Z,19.76
2017-07-22T00:48:24.038Z,19.75
2017-07-22T00:48:28.264Z,19.74
2017-07-22T00:48:32.613Z,19.74
2017-07-22T00:48:36.822Z,19.74
2017-07-22T00:48:41.163Z,19.73
2017-07-22T00:48:45.515Z,19.73
2017-07-22T00:48:49.973Z,19.74
2017-07-22T00:48:54.437Z,19.73
2017-07-22T00:48:58.917Z,19.73
2017-07-22T00:49:03.576Z,19.72
2017-07-22T00:49:07.917Z,19.72
2017-07-22T00:49:12.368Z,19.73
2017-07-22T00:49:16.853Z,19.73
2017-07-22T00:49:21.307Z,19.72
2017-07-22T00:49:25.777Z,19.71
2017-07-22T00:49:30.123Z,19.71
2017-07-22T00:49:34.465Z,19.71
2017-07-22T00:49:38.918Z,19.7
2017-07-22T00:49:43.392Z,19.7
2017-07-22T00:49:47.853Z,19.71
2017-07-22T00:49:52.319Z,19.7
2017-07-22T00:49:56.658Z,19.7
2017-07-22T00:50:01.120Z,19.69
2017-07-22T00:50:05.576Z,19.69
2017-07-22T00:50:09.835Z,19.68
2017-07-22T00:50:14.181Z,19.68
2017-07-22T00:50:18.539Z,19.68
2017-07-22T00:50:23.033Z,19.67
2017-07-22T00:50:27.502Z,19.67
2017-07-22T00:50:31.961Z,19.67
2017-07-22T00:50:36.422Z,19.67
2017-07-22T00:50:40.771Z,19.67
2017-07-22T00:50:45.105Z,19.67
2017-07-22T00:50:49.447Z,19.66
2017-07-22T00:50:53.915Z,19.65
2017-07-22T00:50:58.379Z,19.66
2017-07-22T00:51:02.851Z,19.64
2017-07-22T00:51:07.307Z,19.66
2017-07-22T00:51:11.776Z,19.64
2017-07-22T00:51:16.135Z,19.64
2017-07-22T00:51:20.235Z,19.64
2017-07-22T00:51:24.698Z,19.64
2017-07-22T00:51:29.201Z,19.63
2017-07-22T00:51:33.657Z,19.64
2017-07-22T00:51:38.007Z,19.63
2017-07-22T00:51:42.465Z,19.63
2017-07-22T00:51:46.814Z,19.63
2017-07-22T00:51:51.166Z,19.62
2017-07-22T00:51:55.621Z,19.61
2017-07-22T00:52:00.080Z,19.61
2017-07-22T00:52:04.557Z,19.62
2017-07-22T00:52:08.914Z,19.6
2017-07-22T00:52:13.392Z,19.61
2017-07-22T00:52:17.867Z,19.6
2017-07-22T00:52:22.332Z,19.6
2017-07-22T00:52:26.793Z,19.59
2017-07-22T00:52:31.257Z,19.59
2017-07-22T00:52:35.633Z,19.59
2017-07-22T00:52:39.980Z,19.59
2017-07-22T00:52:44.431Z,19.59
2017-07-22T00:52:48.882Z,19.59
2017-07-22T00:52:53.351Z,19.58
2017-07-22T00:52:57.816Z,19.57
2017-07-22T00:53:02.278Z,19.58
2017-07-22T00:53:06.637Z,19.58
2017-07-22T00:53:10.992Z,19.57
2017-07-22T00:53:15.336Z,19.57
2017-07-22T00:53:19.800Z,19.56
2017-07-22T00:53:24.293Z,19.56
2017-07-22T00:53:28.646Z,19.56
2017-07-22T00:53:33.086Z,19.56
2017-07-22T00:53:37.428Z,19.56
2017-07-22T00:53:41.799Z,19.55
2017-07-22T00:53:46.261Z,19.55
2017-07-22T00:53:50.593Z,19.55
2017-07-22T00:53:55.054Z,19.54
2017-07-22T00:53:59.519Z,19.55
2017-07-22T00:54:04.072Z,19.55
2017-07-22T00:54:08.534Z,19.54
2017-07-22T00:54:12.881Z,19.53
2017-07-22T00:54:17.378Z,19.53
2017-07-22T00:54:21.723Z,19.53
2017-07-22T00:54:26.181Z,19.52
2017-07-22T00:54:30.640Z,19.53
2017-07-22T00:54:34.980Z,19.53
2017-07-22T00:54:39.339Z,19.52
2017-07-22T00:54:43.683Z,19.51
2017-07-22T00:54:48.042Z,19.52
2017-07-22T00:54:52.507Z,19.51
2017-07-22T00:54:56.975Z,19.51
2017-07-22T00:55:01.446Z,19.51
2017-07-22T00:55:05.940Z,19.5
2017-07-22T00:55:10.284Z,19.51
2017-07-22T00:55:14.619Z,19.5
2017-07-22T00:55:18.975Z,19.5
2017-07-22T00:55:23.434Z,19.5
2017-07-22T00:55:27.899Z,19.49
2017-07-22T00:55:32.219Z,19.49
2017-07-22T00:55:36.674Z,19.49
2017-07-22T00:55:40.782Z,19.49
2017-07-22T00:55:45.259Z,19.49
2017-07-22T00:55:49.732Z,19.48
2017-07-22T00:55:54.201Z,19.48
2017-07-22T00:55:58.677Z,19.47
2017-07-22T00:56:03.496Z,19.47
2017-07-22T00:56:07.829Z,19.48
2017-07-22T00:56:12.186Z,19.47
2017-07-22T00:56:16.648Z,19.47
2017-07-22T00:56:21.109Z,19.46
2017-07-22T00:56:25.571Z,19.46
2017-07-22T00:56:29.943Z,19.46
2017-07-22T00:56:34.287Z,19.46
2017-07-22T00:56:38.736Z,19.46
2017-07-22T00:56:43.216Z,19.45
2017-07-22T00:56:47.684Z,19.46
2017-07-22T00:56:51.888Z,19.45
2017-07-22T00:56:56.113Z,19.45
2017-07-22T00:57:00.573Z,19.45